Time;durP1;ratioP1;P1;durP2;ratioP2;P2;SDS_P1;SDS_P2;PMS_P1;PMS_P2;Temp;Humidity;BMP_temperature;BMP_pressure;BME280_temperature;BME280_humidity;BME280_pressure;Samples;Min_cycle;Max_cycle;Signal;HPM_P1;HPM_P2
2023/06/12 00:01:03;;;;;;;12.90;10.80;;;;;;;-128.00;-1.00;-1.00;18474;294;7505939;-32
2023/06/12 00:03:29;;;;;;;12.90;7.60;;;;;;;-128.00;-1.00;-1.00;18455;295;7504709;-32
2023/06/12 00:06:01;;;;;;;8.40;7.50;;;;;;;-128.00;-1.00;-1.00;18452;306;7504894;-31
2023/06/12 00:08:28;;;;;;;3.40;2.90;;;;;;;-128.00;-1.00;-1.00;18466;294;7504803;-32
2023/06/12 00:10:54;;;;;;;3.80;3.50;;;;;;;-128.00;-1.00;-1.00;18467;294;7504150;-32
2023/06/12 00:13:20;;;;;;;5.80;4.30;;;;;;;-128.00;-1.00;-1.00;18456;347;7505000;-32
2023/06/12 00:15:46;;;;;;;9.60;4.70;;;;;;;-128.00;-1.00;-1.00;18864;335;7504907;-32
2023/06/12 00:18:13;;;;;;;5.30;4.50;;;;;;;-128.00;-1.00;-1.00;18926;294;7504206;-32
2023/06/12 00:20:39;;;;;;;16.00;4.70;;;;;;;-128.00;-1.00;-1.00;18492;294;7504798;-31
2023/06/12 00:23:06;;;;;;;4.80;4.40;;;;;;;-128.00;-1.00;-1.00;18490;294;7504720;-36
2023/06/12 00:25:32;;;;;;;5.60;4.50;;;;;;;-128.00;-1.00;-1.00;18496;294;7504881;-34
2023/06/12 00:27:57;;;;;;;4.90;3.10;;;;;;;-128.00;-1.00;-1.00;18470;294;7506435;-34
2023/06/12 00:30:23;;;;;;;9.20;4.90;;;;;;;-128.00;-1.00;-1.00;18878;346;7504368;-35
2023/06/12 00:32:49;;;;;;;6.60;5.50;;;;;;;-128.00;-1.00;-1.00;18945;300;7504276;-31
2023/06/12 00:35:18;;;;;;;7.70;4.60;;;;;;;-128.00;-1.00;-1.00;18872;319;7505089;-31
2023/06/12 01:17:35;;;;;;;6.20;5.60;;;;;;;-100.58;18.12;19955.19;56602;319;7504216;-31
2023/06/12 01:20:05;;;;;;;3.60;3.20;;;;;;;-128.00;-1.00;-1.00;18183;285;7506946;-31
2023/06/12 01:22:31;;;;;;;4.20;2.80;;;;;;;-128.00;-1.00;-1.00;18468;339;7504603;-35
2023/06/12 01:25:18;;;;;;;6.90;4.50;;;;;;;-128.00;-1.00;-1.00;18479;295;7504499;-35
2023/06/12 01:28:01;;;;;;;6.10;4.80;;;;;;;-128.00;-1.00;-1.00;18460;295;7505748;-31
2023/06/12 01:30:54;;;;;;;5.80;4.30;;;;;;;-128.00;-1.00;-1.00;18485;306;7504571;-35
2023/06/12 01:33:20;;;;;;;;;;;;;;;-128.00;-1.00;-1.00;18483;294;7504388;-31
2023/06/12 01:35:46;;;;;;;6.70;5.10;;;;;;;-128.00;-1.00;-1.00;18506;307;7506557;-35
2023/06/12 01:38:21;;;;;;;13.70;4.90;;;;;;;-128.00;-1.00;-1.00;18500;346;7504210;-35
2023/06/12 01:40:47;;;;;;;4.80;4.30;;;;;;;-128.00;-1.00;-1.00;18487;295;7506096;-31
2023/06/12 01:43:12;;;;;;;3.40;2.50;;;;;;;-128.00;-1.00;-1.00;18460;295;7504376;-34
2023/06/12 01:45:40;;;;;;;5.40;4.90;;;;;;;-128.00;-1.00;-1.00;18899;298;7505915;-35
2023/06/12 01:48:05;;;;;;;5.60;4.20;;;;;;;-128.00;-1.00;-1.00;18483;295;7505162;-31
2023/06/12 01:50:31;;;;;;;7.30;6.00;;;;;;;-128.00;-1.00;-1.00;18475;295;7504782;-34
2023/06/12 01:52:57;;;;;;;3.80;3.40;;;;;;;-128.00;-1.00;-1.00;18469;302;7505875;-31
2023/06/12 01:55:24;;;;;;;3.90;3.30;;;;;;;-128.00;-1.00;-1.00;18485;295;7505874;-34
2023/06/12 01:57:50;;;;;;;5.30;3.10;;;;;;;-128.00;-1.00;-1.00;18476;295;7504425;-34
2023/06/12 02:00:17;;;;;;;4.00;3.50;;;;;;;-128.00;-1.00;-1.00;18494;295;7506016;-32
2023/06/12 02:02:43;;;;;;;4.30;3.00;;;;;;;-128.00;-1.00;-1.00;18454;295;7505151;-31
2023/06/12 02:05:10;;;;;;;4.60;3.80;;;;;;;-128.00;-1.00;-1.00;18480;295;7505373;-31
2023/06/12 02:07:36;;;;;;;6.10;3.30;;;;;;;-128.00;-1.00;-1.00;18479;295;7504091;-31
2023/06/12 02:10:02;;;;;;;7.00;3.00;;;;;;;-128.00;-1.00;-1.00;18482;290;7506684;-32
2023/06/12 02:12:29;;;;;;;6.20;4.80;;;;;;;-128.00;-1.00;-1.00;18475;295;7506227;-35
2023/06/12 02:14:57;;;;;;;7.10;5.80;;;;;;;-128.00;-1.00;-1.00;18459;295;7504688;-36
2023/06/12 02:17:23;;;;;;;7.60;5.90;;;;;;;-128.00;-1.00;-1.00;18478;295;7505400;-36
2023/06/12 02:19:49;;;;;;;7.30;5.40;;;;;;;-128.00;-1.00;-1.00;18506;288;7505207;-34
2023/06/12 02:22:15;;;;;;;7.80;6.30;;;;;;;-128.00;-1.00;-1.00;18498;347;7505069;-35
2023/06/12 02:24:40;;;;;;;6.60;5.70;;;;;;;-128.00;-1.00;-1.00;18491;295;7506576;-35
2023/06/12 02:27:06;;;;;;;7.90;6.50;;;;;;;-128.00;-1.00;-1.00;18458;339;7504613;-31
2023/06/12 02:29:32;;;;;;;8.80;7.50;;;;;;;-128.00;-1.00;-1.00;18903;295;7505119;-32
2023/06/12 02:31:58;;;;;;;5.90;4.80;;;;;;;-128.00;-1.00;-1.00;18468;295;7506171;-35
2023/06/12 02:34:24;;;;;;;5.00;4.50;;;;;;;-128.00;-1.00;-1.00;18475;346;7505566;-35
2023/06/12 02:36:50;;;;;;;16.50;7.50;;;;;;;-128.00;-1.00;-1.00;18462;295;7504481;-31
2023/06/12 02:39:15;;;;;;;12.90;7.40;;;;;;;-128.00;-1.00;-1.00;18470;306;7506244;-35
2023/06/12 02:41:43;;;;;;;9.60;6.20;;;;;;;-128.00;-1.00;-1.00;18480;308;7506167;-31
2023/06/12 02:44:09;;;;;;;11.90;7.90;;;;;;;-128.00;-1.00;-1.00;18519;295;7506100;-31
2023/06/12 02:46:50;;;;;;;11.30;8.80;;;;;;;-128.00;-1.00;-1.00;18474;295;7505217;-35
2023/06/12 02:49:16;;;;;;;11.70;8.60;;;;;;;-128.00;-1.00;-1.00;18451;295;7504182;-31
2023/06/12 02:51:41;;;;;;;13.30;9.90;;;;;;;-128.00;-1.00;-1.00;18490;295;7504942;-34
2023/06/12 02:54:07;;;;;;;13.70;9.00;;;;;;;-128.00;-1.00;-1.00;18489;339;7504842;-30
2023/06/12 02:56:33;;;;;;;10.00;8.40;;;;;;;-128.00;-1.00;-1.00;18488;295;7506023;-35
2023/06/12 02:58:59;;;;;;;14.40;9.00;;;;;;;-128.00;-1.00;-1.00;18881;348;7504962;-31
2023/06/12 03:01:25;;;;;;;10.60;8.30;;;;;;;-128.00;-1.00;-1.00;18907;335;7504868;-29
2023/06/12 03:03:52;;;;;;;9.70;7.50;;;;;;;-128.00;-1.00;-1.00;18470;288;7504514;-35
2023/06/12 03:06:26;;;;;;;10.60;7.60;;;;;;;-128.00;-1.00;-1.00;18458;295;7504487;-35
2023/06/12 03:08:52;;;;;;;12.00;7.10;;;;;;;-128.00;-1.00;-1.00;18464;332;7504899;-35
2023/06/12 03:11:19;;;;;;;7.30;5.90;;;;;;;-128.00;-1.00;-1.00;18516;295;7504579;-35
2023/06/12 03:13:45;;;;;;;6.80;5.20;;;;;;;-128.00;-1.00;-1.00;18498;339;7506060;-31
2023/06/12 03:16:10;;;;;;;6.20;5.60;;;;;;;-128.00;-1.00;-1.00;18465;295;7504588;-35
2023/06/12 03:18:36;;;;;;;5.50;5.00;;;;;;;-128.00;-1.00;-1.00;18862;311;7504130;-36
2023/06/12 03:21:02;;;;;;;7.60;5.10;;;;;;;-128.00;-1.00;-1.00;18881;295;7504445;-35
2023/06/12 03:23:29;;;;;;;13.40;7.40;;;;;;;-128.00;-1.00;-1.00;18888;295;7505312;-32
2023/06/12 03:25:55;;;;;;;10.40;5.70;;;;;;;-128.00;-1.00;-1.00;18869;335;7505000;-33
2023/06/12 03:28:21;;;;;;;8.60;7.30;;;;;;;-128.00;-1.00;-1.00;18906;295;7504554;-30
2023/06/12 03:30:47;;;;;;;10.20;6.00;;;;;;;-128.00;-1.00;-1.00;18891;295;7505111;-36
2023/06/12 03:33:14;;;;;;;13.60;6.30;;;;;;;-128.00;-1.00;-1.00;18501;322;7505968;-31
2023/06/12 03:35:40;;;;;;;7.50;6.60;;;;;;;-128.00;-1.00;-1.00;18489;346;7504979;-32
2023/06/12 03:38:06;;;;;;;5.60;5.10;;;;;;;-128.00;-1.00;-1.00;18475;295;7504254;-36
2023/06/12 03:40:31;;;;;;;9.30;5.80;;;;;;;-128.00;-1.00;-1.00;18440;295;7504600;-32
2023/06/12 03:42:57;;;;;;;6.10;5.50;;;;;;;-128.00;-1.00;-1.00;18869;334;7506500;-30
2023/06/12 03:45:24;;;;;;;6.70;6.10;;;;;;;-128.00;-1.00;-1.00;18912;295;7504468;-35
2023/06/12 03:47:50;;;;;;;7.80;6.60;;;;;;;-128.00;-1.00;-1.00;18454;295;7505837;-35
2023/06/12 03:50:16;;;;;;;6.90;6.30;;;;;;;-128.00;-1.00;-1.00;18468;318;7505760;-35
2023/06/12 03:52:42;;;;;;;10.70;6.20;;;;;;;-128.00;-1.00;-1.00;18480;318;7506546;-35
2023/06/12 03:55:08;;;;;;;8.30;7.40;;;;;;;-128.00;-1.00;-1.00;18858;295;7504348;-31
2023/06/12 03:57:34;;;;;;;10.10;7.80;;;;;;;-128.00;-1.00;-1.00;18879;295;7504353;-35
2023/06/12 04:00:01;;;;;;;9.30;7.10;;;;;;;-128.00;-1.00;-1.00;18881;295;7504473;-31
2023/06/12 04:02:27;;;;;;;10.90;6.70;;;;;;;-128.00;-1.00;-1.00;18857;295;7504215;-35
2023/06/12 04:04:53;;;;;;;7.10;6.30;;;;;;;-128.00;-1.00;-1.00;18881;307;7504853;-32
2023/06/12 04:07:21;;;;;;;7.50;6.30;;;;;;;-128.00;-1.00;-1.00;18859;295;7504361;-35
2023/06/12 04:09:46;;;;;;;5.60;5.00;;;;;;;-128.00;-1.00;-1.00;18480;295;7506417;-35
2023/06/12 04:12:12;;;;;;;8.40;4.60;;;;;;;-128.00;-1.00;-1.00;18911;295;7504553;-35
2023/06/12 04:14:39;;;;;;;5.00;4.60;;;;;;;-128.00;-1.00;-1.00;18879;295;7504305;-35
2023/06/12 04:17:05;;;;;;;10.60;6.70;;;;;;;-128.00;-1.00;-1.00;18859;295;7505144;-31
2023/06/12 04:19:31;;;;;;;4.60;4.20;;;;;;;-128.00;-1.00;-1.00;18910;318;7504361;-31
2023/06/12 04:22:00;;;;;;;5.60;4.90;;;;;;;-128.00;-1.00;-1.00;18878;295;7504720;-32
2023/06/12 04:24:30;;;;;;;4.30;3.50;;;;;;;-128.00;-1.00;-1.00;18485;295;7504428;-35
2023/06/12 04:27:00;;;;;;;4.10;3.30;;;;;;;-128.00;-1.00;-1.00;18456;295;7504951;-33
2023/06/12 04:29:28;;;;;;;6.50;5.60;;;;;;;-128.00;-1.00;-1.00;18475;318;7504752;-32
2023/06/12 04:31:55;;;;;;;5.50;5.00;;;;;;;-128.00;-1.00;-1.00;18471;295;7505646;-32
2023/06/12 04:34:21;;;;;;;4.70;4.30;;;;;;;-128.00;-1.00;-1.00;18461;299;7506901;-35
2023/06/12 04:36:47;;;;;;;6.90;5.20;;;;;;;-128.00;-1.00;-1.00;18479;295;7504789;-31
2023/06/12 04:39:13;;;;;;;4.90;4.30;;;;;;;-128.00;-1.00;-1.00;18508;295;7505278;-36
2023/06/12 04:41:40;;;;;;;7.70;6.00;;;;;;;-128.00;-1.00;-1.00;18468;295;7506195;-32
2023/06/12 04:44:06;;;;;;;5.60;5.10;;;;;;;-128.00;-1.00;-1.00;18476;335;7504922;-35
2023/06/12 04:46:33;;;;;;;10.30;5.70;;;;;;;-128.00;-1.00;-1.00;18481;347;7504802;-32
2023/06/12 04:48:59;;;;;;;4.20;3.90;;;;;;;-128.00;-1.00;-1.00;18464;295;7505956;-36
2023/06/12 04:51:25;;;;;;;4.90;4.40;;;;;;;-128.00;-1.00;-1.00;18465;347;7504835;-32
2023/06/12 04:53:53;;;;;;;4.50;4.00;;;;;;;-128.00;-1.00;-1.00;18518;295;7504408;-35
2023/06/12 04:56:22;;;;;;;4.60;3.70;;;;;;;-128.00;-1.00;-1.00;18471;294;7504799;-32
2023/06/12 04:58:49;;;;;;;4.30;3.40;;;;;;;-128.00;-1.00;-1.00;18472;295;7504818;-36
2023/06/12 05:01:19;;;;;;;6.00;3.00;;;;;;;-128.00;-1.00;-1.00;18472;295;7504869;-36
2023/06/12 05:03:46;;;;;;;3.20;2.90;;;;;;;-128.00;-1.00;-1.00;18452;295;7504661;-32
2023/06/12 05:06:11;;;;;;;4.40;3.80;;;;;;;-128.00;-1.00;-1.00;18474;295;7504676;-35
2023/06/12 05:08:37;;;;;;;4.30;3.50;;;;;;;-128.00;-1.00;-1.00;18474;295;7504621;-35
2023/06/12 05:11:06;;;;;;;5.10;2.60;;;;;;;-128.00;-1.00;-1.00;18472;295;7506502;-32
2023/06/12 05:13:31;;;;;;;2.80;2.10;;;;;;;-128.00;-1.00;-1.00;18468;295;7504887;-33
2023/06/12 05:15:57;;;;;;;5.10;3.40;;;;;;;-128.00;-1.00;-1.00;18870;295;7505471;-32
2023/06/12 05:18:24;;;;;;;3.80;2.30;;;;;;;-128.00;-1.00;-1.00;18878;335;7505062;-33
2023/06/12 05:20:50;;;;;;;12.90;4.20;;;;;;;-128.00;-1.00;-1.00;18891;295;7505460;-36
2023/06/12 05:23:16;;;;;;;2.70;1.90;;;;;;;-128.00;-1.00;-1.00;18882;295;7504397;-33
2023/06/12 05:25:42;;;;;;;9.60;3.40;;;;;;;-128.00;-1.00;-1.00;18864;295;7504012;-37
2023/06/12 05:28:09;;;;;;;4.30;2.70;;;;;;;-128.00;-1.00;-1.00;18889;288;7505243;-33
2023/06/12 05:30:35;;;;;;;3.90;3.00;;;;;;;-128.00;-1.00;-1.00;18475;295;7504392;-32
2023/06/12 05:33:01;;;;;;;6.20;2.60;;;;;;;-128.00;-1.00;-1.00;18866;295;7505147;-32
2023/06/12 05:35:27;;;;;;;3.50;3.00;;;;;;;-128.00;-1.00;-1.00;18869;295;7504913;-36
2023/06/12 05:37:53;;;;;;;7.70;3.20;;;;;;;-128.00;-1.00;-1.00;18868;288;7504640;-35
2023/06/12 05:40:19;;;;;;;3.90;3.40;;;;;;;-128.00;-1.00;-1.00;18882;295;7505013;-35
2023/06/12 05:42:45;;;;;;;5.00;3.70;;;;;;;-128.00;-1.00;-1.00;18904;295;7505550;-32
2023/06/12 05:45:12;;;;;;;4.30;2.50;;;;;;;-128.00;-1.00;-1.00;18900;295;7504163;-36
2023/06/12 05:47:38;;;;;;;5.20;2.60;;;;;;;-128.00;-1.00;-1.00;18877;339;7504196;-33
2023/06/12 05:50:05;;;;;;;4.70;3.40;;;;;;;-128.00;-1.00;-1.00;18862;295;7504292;-32
2023/06/12 05:52:30;;;;;;;4.80;2.30;;;;;;;-128.00;-1.00;-1.00;18469;283;7504265;-32
2023/06/12 05:54:56;;;;;;;2.60;2.30;;;;;;;-128.00;-1.00;-1.00;18473;295;7504975;-36
2023/06/12 05:57:22;;;;;;;4.40;3.10;;;;;;;-128.00;-1.00;-1.00;18886;295;7505325;-36
2023/06/12 05:59:48;;;;;;;3.80;2.40;;;;;;;-128.00;-1.00;-1.00;18851;295;7504113;-36
2023/06/12 06:02:14;;;;;;;7.30;6.50;;;;;;;-128.00;-1.00;-1.00;18851;295;7504582;-36
2023/06/12 06:04:41;;;;;;;6.30;3.50;;;;;;;-128.00;-1.00;-1.00;18855;295;7504578;-36
2023/06/12 06:07:07;;;;;;;5.40;3.20;;;;;;;-128.00;-1.00;-1.00;18875;295;7504608;-33
2023/06/12 06:09:33;;;;;;;3.70;3.30;;;;;;;-128.00;-1.00;-1.00;18476;294;7504382;-33
2023/06/12 06:11:59;;;;;;;4.00;3.10;;;;;;;-128.00;-1.00;-1.00;18487;295;7504525;-36
2023/06/12 06:14:25;;;;;;;4.10;3.60;;;;;;;-128.00;-1.00;-1.00;18448;295;7504535;-35
2023/06/12 06:16:50;;;;;;;14.20;3.20;;;;;;;-128.00;-1.00;-1.00;18507;347;7506203;-36
2023/06/12 06:19:16;;;;;;;4.60;3.30;;;;;;;-128.00;-1.00;-1.00;18475;295;7504852;-36
2023/06/12 06:21:42;;;;;;;3.90;3.30;;;;;;;-128.00;-1.00;-1.00;18865;295;7505059;-32
2023/06/12 06:24:08;;;;;;;13.10;2.70;;;;;;;-128.00;-1.00;-1.00;18896;318;7505793;-32
2023/06/12 06:26:35;;;;;;;3.00;2.60;;;;;;;-128.00;-1.00;-1.00;18875;295;7504742;-32
2023/06/12 06:29:01;;;;;;;4.50;2.60;;;;;;;-128.00;-1.00;-1.00;18874;295;7504630;-36
2023/06/12 06:31:27;;;;;;;3.70;2.20;;;;;;;-128.00;-1.00;-1.00;18880;295;7504776;-33
2023/06/12 06:33:53;;;;;;;4.40;2.00;;;;;;;-128.00;-1.00;-1.00;18866;336;7504518;-36
2023/06/12 06:36:19;;;;;;;3.30;2.60;;;;;;;-128.00;-1.00;-1.00;18497;295;7504975;-36
2023/06/12 06:38:46;;;;;;;15.50;3.10;;;;;;;-128.00;-1.00;-1.00;18874;299;7504808;-36
2023/06/12 06:41:12;;;;;;;7.30;2.90;;;;;;;-128.00;-1.00;-1.00;18889;295;7504512;-33
2023/06/12 06:43:38;;;;;;;3.70;3.10;;;;;;;-128.00;-1.00;-1.00;18910;295;7506488;-36
2023/06/12 06:46:04;;;;;;;3.40;2.10;;;;;;;-128.00;-1.00;-1.00;18870;295;7505051;-33
2023/06/12 06:48:31;;;;;;;4.40;2.60;;;;;;;-128.00;-1.00;-1.00;18874;295;7505340;-36
2023/06/12 06:50:57;;;;;;;9.80;2.70;;;;;;;-128.00;-1.00;-1.00;18879;295;7505093;-35
2023/06/12 06:53:23;;;;;;;5.00;2.30;;;;;;;-128.00;-1.00;-1.00;18464;295;7504382;-32
2023/06/12 06:55:49;;;;;;;10.60;1.50;;;;;;;-128.00;-1.00;-1.00;18862;295;7504570;-36
2023/06/12 06:58:16;;;;;;;5.20;3.30;;;;;;;-128.00;-1.00;-1.00;18874;295;7504636;-35
2023/06/12 07:00:42;;;;;;;4.70;1.90;;;;;;;-128.00;-1.00;-1.00;18923;283;7505323;-32
2023/06/12 07:03:08;;;;;;;3.00;1.70;;;;;;;-128.00;-1.00;-1.00;18873;295;7504807;-32
2023/06/12 07:05:34;;;;;;;3.40;1.60;;;;;;;-128.00;-1.00;-1.00;18864;295;7505190;-32
2023/06/12 07:08:01;;;;;;;2.30;1.50;;;;;;;-128.00;-1.00;-1.00;18869;295;7505101;-32
2023/06/12 07:10:27;;;;;;;3.60;1.70;;;;;;;-128.00;-1.00;-1.00;18851;318;7504551;-31
2023/06/12 07:12:56;;;;;;;2.60;1.50;;;;;;;-128.00;-1.00;-1.00;18877;295;7505619;-32
2023/06/12 07:15:24;;;;;;;2.00;1.20;;;;;;;-128.00;-1.00;-1.00;18466;295;7504259;-35
2023/06/12 07:17:50;;;;;;;2.60;1.60;;;;;;;-128.00;-1.00;-1.00;18480;295;7506205;-31
2023/06/12 07:20:16;;;;;;;2.40;1.60;;;;;;;-128.00;-1.00;-1.00;18482;295;7507751;-31
2023/06/12 07:22:41;;;;;;;1.60;1.30;;;;;;;-128.00;-1.00;-1.00;18481;303;7504687;-33
2023/06/12 07:25:08;;;;;;;4.00;1.90;;;;;;;-128.00;-1.00;-1.00;18884;295;7505119;-32
2023/06/12 07:27:34;;;;;;;2.00;1.60;;;;;;;-128.00;-1.00;-1.00;18862;294;7504190;-32
2023/06/12 07:30:00;;;;;;;3.50;1.70;;;;;;;-128.00;-1.00;-1.00;18879;295;7504464;-32
2023/06/12 07:32:27;;;;;;;2.20;1.40;;;;;;;-128.00;-1.00;-1.00;18873;295;7504712;-34
2023/06/12 07:34:54;;;;;;;3.10;1.60;;;;;;;-128.00;-1.00;-1.00;18438;298;7506204;-36
2023/06/12 07:37:21;;;;;;;5.30;3.10;;;;;;;-128.00;-1.00;-1.00;18457;346;7504757;-36
2023/06/12 07:39:47;;;;;;;5.90;2.80;;;;;;;-128.00;-1.00;-1.00;18480;295;7505598;-35
2023/06/12 07:42:14;;;;;;;5.00;2.60;;;;;;;-128.00;-1.00;-1.00;18468;310;7504665;-32
2023/06/12 07:44:40;;;;;;;2.40;2.20;;;;;;;-128.00;-1.00;-1.00;18459;295;7504846;-33
2023/06/12 07:47:07;;;;;;;10.20;1.80;;;;;;;-128.00;-1.00;-1.00;18484;307;7504258;-36
2023/06/12 07:49:33;;;;;;;6.80;2.40;;;;;;;-128.00;-1.00;-1.00;18448;295;7504750;-32
2023/06/12 07:51:59;;;;;;;4.20;1.70;;;;;;;-128.00;-1.00;-1.00;18481;295;7504828;-37
2023/06/12 07:54:25;;;;;;;3.30;2.10;;;;;;;-128.00;-1.00;-1.00;18491;295;7506177;-36
2023/06/12 07:56:53;;;;;;;2.10;1.70;;;;;;;-128.00;-1.00;-1.00;18479;295;7504444;-32
2023/06/12 07:59:19;;;;;;;6.50;2.40;;;;;;;-128.00;-1.00;-1.00;18474;346;7505818;-31
2023/06/12 08:01:44;;;;;;;4.90;1.90;;;;;;;-128.00;-1.00;-1.00;18524;295;7505022;-36
2023/06/12 08:04:10;;;;;;;2.80;2.00;;;;;;;-128.00;-1.00;-1.00;18464;322;7505717;-36
2023/06/12 08:06:38;;;;;;;2.80;1.40;;;;;;;-128.00;-1.00;-1.00;18475;295;7504577;-38
2023/06/12 08:09:04;;;;;;;2.60;1.70;;;;;;;-128.00;-1.00;-1.00;18477;295;7505005;-36
2023/06/12 08:11:29;;;;;;;2.40;2.10;;;;;;;-128.00;-1.00;-1.00;18502;295;7506154;-36
2023/06/12 08:13:55;;;;;;;2.70;2.50;;;;;;;-128.00;-1.00;-1.00;18473;295;7505684;-32
2023/06/12 08:16:24;;;;;;;11.50;2.00;;;;;;;-128.00;-1.00;-1.00;18484;330;7505134;-35
2023/06/12 08:18:50;;;;;;;2.40;2.00;;;;;;;-128.00;-1.00;-1.00;18475;339;7504850;-32
2023/06/12 08:21:15;;;;;;;2.30;2.10;;;;;;;-128.00;-1.00;-1.00;18481;295;7504922;-31
2023/06/12 08:23:41;;;;;;;2.70;1.70;;;;;;;-128.00;-1.00;-1.00;18880;295;7504358;-31
2023/06/12 08:26:08;;;;;;;18.70;2.40;;;;;;;-128.00;-1.00;-1.00;18880;347;7504417;-32
2023/06/12 08:28:36;;;;;;;4.20;2.30;;;;;;;-128.00;-1.00;-1.00;18486;347;7506611;-31
2023/06/12 08:31:01;;;;;;;4.20;1.60;;;;;;;-128.00;-1.00;-1.00;18467;295;7505181;-32
2023/06/12 08:33:28;;;;;;;11.20;2.00;;;;;;;-128.00;-1.00;-1.00;18462;295;7505851;-35
2023/06/12 08:35:54;;;;;;;3.70;2.50;;;;;;;-128.00;-1.00;-1.00;18495;295;7506066;-31
2023/06/12 08:38:21;;;;;;;11.80;2.60;;;;;;;-128.00;-1.00;-1.00;18486;335;7506003;-35
2023/06/12 08:40:46;;;;;;;2.20;1.10;;;;;;;-128.00;-1.00;-1.00;18460;295;7505815;-35
2023/06/12 08:43:12;;;;;;;1.80;1.20;;;;;;;-128.00;-1.00;-1.00;18479;335;7504791;-35
2023/06/12 08:45:46;;;;;;;2.20;1.70;;;;;;;-128.00;-1.00;-1.00;18483;295;7505733;-35
2023/06/12 08:48:12;;;;;;;9.70;1.30;;;;;;;-128.00;-1.00;-1.00;18462;295;7504273;-31
2023/06/12 08:50:38;;;;;;;1.20;1.10;;;;;;;-128.00;-1.00;-1.00;18487;295;7504890;-35
2023/06/12 08:53:05;;;;;;;1.80;1.50;;;;;;;-128.00;-1.00;-1.00;18463;347;7504640;-33
2023/06/12 08:55:32;;;;;;;3.60;1.50;;;;;;;-128.00;-1.00;-1.00;18466;295;7504770;-33
2023/06/12 08:57:59;;;;;;;3.00;1.80;;;;;;;-128.00;-1.00;-1.00;18470;295;7504681;-38
2023/06/12 09:00:25;;;;;;;1.50;1.30;;;;;;;-128.00;-1.00;-1.00;18478;295;7504593;-32
2023/06/12 09:02:52;;;;;;;7.10;1.20;;;;;;;-128.00;-1.00;-1.00;18460;337;7506037;-36
2023/06/12 09:05:21;;;;;;;1.20;0.80;;;;;;;-128.00;-1.00;-1.00;18476;335;7506153;-32
2023/06/12 09:07:47;;;;;;;2.00;1.20;;;;;;;-128.00;-1.00;-1.00;18501;295;7504588;-36
2023/06/12 09:10:14;;;;;;;2.30;1.40;;;;;;;-128.00;-1.00;-1.00;18469;295;7504740;-35
2023/06/12 09:12:43;;;;;;;2.30;2.00;;;;;;;-128.00;-1.00;-1.00;18490;302;7504432;-35
2023/06/12 09:15:15;;;;;;;1.80;1.10;;;;;;;-128.00;-1.00;-1.00;18479;347;7506362;-36
2023/06/12 09:17:42;;;;;;;2.60;1.50;;;;;;;-128.00;-1.00;-1.00;18492;295;7504847;-37
2023/06/12 09:20:08;;;;;;;2.60;1.20;;;;;;;-128.00;-1.00;-1.00;18022;295;7506075;-35
2023/06/12 09:22:37;;;;;;;3.60;1.30;;;;;;;-128.00;-1.00;-1.00;18494;295;7504714;-35
2023/06/12 09:25:05;;;;;;;2.80;1.00;;;;;;;-128.00;-1.00;-1.00;18474;295;7505288;-31
2023/06/12 09:27:31;;;;;;;2.60;1.10;;;;;;;-128.00;-1.00;-1.00;18455;295;7506213;-35
2023/06/12 09:30:00;;;;;;;1.60;1.20;;;;;;;-128.00;-1.00;-1.00;18471;318;7506128;-31
2023/06/12 09:32:28;;;;;;;2.40;1.70;;;;;;;-128.00;-1.00;-1.00;18478;288;7506277;-31
2023/06/12 09:34:53;;;;;;;9.00;2.30;;;;;;;-128.00;-1.00;-1.00;18482;295;7504516;-31
2023/06/12 09:37:20;;;;;;;2.00;1.80;;;;;;;-128.00;-1.00;-1.00;18490;339;7504281;-31
2023/06/12 09:39:45;;;;;;;4.50;1.70;;;;;;;-128.00;-1.00;-1.00;18481;295;7506000;-33
2023/06/12 09:42:13;;;;;;;1.60;1.10;;;;;;;-128.00;-1.00;-1.00;18871;295;7504670;-32
2023/06/12 09:44:39;;;;;;;3.80;0.90;;;;;;;-128.00;-1.00;-1.00;18464;318;7505211;-32
2023/06/12 09:47:05;;;;;;;6.20;1.50;;;;;;;-128.00;-1.00;-1.00;18880;296;7505033;-36
2023/06/12 09:49:32;;;;;;;3.50;1.80;;;;;;;-128.00;-1.00;-1.00;18498;335;7504590;-35
2023/06/12 09:52:00;;;;;;;14.10;1.20;;;;;;;-128.00;-1.00;-1.00;18574;295;7504355;-36
2023/06/12 09:54:26;;;;;;;3.00;1.60;;;;;;;-128.00;-1.00;-1.00;18474;295;7505150;-32
2023/06/12 09:56:53;;;;;;;3.30;1.30;;;;;;;-128.00;-1.00;-1.00;18881;295;7504542;-36
2023/06/12 09:59:21;;;;;;;6.00;1.30;;;;;;;-128.00;-1.00;-1.00;18471;294;7506306;-32
2023/06/12 10:01:48;;;;;;;2.40;1.20;;;;;;;-128.00;-1.00;-1.00;18484;295;7504611;-36
2023/06/12 10:04:17;;;;;;;9.20;1.30;;;;;;;-128.00;-1.00;-1.00;18511;295;7505795;-36
2023/06/12 10:06:43;;;;;;;2.50;1.40;;;;;;;-128.00;-1.00;-1.00;18475;295;7505234;-36
2023/06/12 10:09:09;;;;;;;6.30;1.50;;;;;;;-128.00;-1.00;-1.00;18867;295;7505442;-36
2023/06/12 10:11:37;;;;;;;2.20;1.00;;;;;;;-128.00;-1.00;-1.00;18853;295;7504615;-35
2023/06/12 10:14:02;;;;;;;5.30;1.60;;;;;;;-128.00;-1.00;-1.00;18470;295;7504893;-32
2023/06/12 10:16:34;;;;;;;7.00;1.10;;;;;;;-128.00;-1.00;-1.00;18457;295;7506240;-31
2023/06/12 10:18:59;;;;;;;;;;;;;;;-128.00;-1.00;-1.00;18476;295;7504387;-35
2023/06/12 10:21:26;;;;;;;1.60;1.00;;;;;;;-128.00;-1.00;-1.00;18469;298;7504704;-32
2023/06/12 10:23:52;;;;;;;1.00;0.90;;;;;;;-128.00;-1.00;-1.00;18498;295;7504741;-32
2023/06/12 10:26:18;;;;;;;2.50;0.90;;;;;;;-128.00;-1.00;-1.00;18899;295;7504390;-35
2023/06/12 10:28:44;;;;;;;5.20;0.80;;;;;;;-128.00;-1.00;-1.00;18873;295;7504187;-35
2023/06/12 10:31:17;;;;;;;3.40;1.00;;;;;;;-128.00;-1.00;-1.00;18874;287;7504660;-32
2023/06/12 10:33:56;;;;;;;2.40;0.90;;;;;;;-128.00;-1.00;-1.00;18463;295;7504612;-32
2023/06/12 10:36:22;;;;;;;1.40;1.00;;;;;;;-128.00;-1.00;-1.00;18477;295;7504521;-35
2023/06/12 10:38:48;;;;;;;0.80;0.80;;;;;;;-128.00;-1.00;-1.00;18487;295;7505344;-31
2023/06/12 10:41:32;;;;;;;4.60;0.70;;;;;;;-128.00;-1.00;-1.00;18473;307;7505013;-31
2023/06/12 10:43:58;;;;;;;7.90;0.90;;;;;;;-128.00;-1.00;-1.00;18480;295;7504750;-32
2023/06/12 10:46:41;;;;;;;3.30;1.10;;;;;;;-128.00;-1.00;-1.00;18481;295;7504811;-35
2023/06/12 10:49:07;;;;;;;2.40;0.70;;;;;;;-128.00;-1.00;-1.00;18542;299;7506361;-31
2023/06/12 10:51:33;;;;;;;1.70;0.80;;;;;;;-128.00;-1.00;-1.00;18864;295;7505934;-32
2023/06/12 10:54:03;;;;;;;1.50;1.10;;;;;;;-128.00;-1.00;-1.00;23073;288;7503893;-36
2023/06/12 10:56:31;;;;;;;0.90;0.80;;;;;;;-128.00;-1.00;-1.00;19135;295;7504600;-32
2023/06/12 10:58:58;;;;;;;9.40;1.50;;;;;;;-128.00;-1.00;-1.00;21513;288;7504252;-35
2023/06/12 11:01:25;;;;;;;3.90;1.10;;;;;;;-128.00;-1.00;-1.00;21027;295;7504238;-32
2023/06/12 11:03:51;;;;;;;2.20;0.80;;;;;;;-128.00;-1.00;-1.00;18901;295;7505015;-32
2023/06/12 11:06:17;;;;;;;2.60;1.10;;;;;;;-128.00;-1.00;-1.00;18865;303;7504303;-31
2023/06/12 11:08:45;;;;;;;2.50;0.90;;;;;;;-128.00;-1.00;-1.00;18850;346;7504756;-31
2023/06/12 11:11:11;;;;;;;0.80;0.70;;;;;;;-128.00;-1.00;-1.00;18460;295;7506005;-32
2023/06/12 11:13:41;;;;;;;8.70;2.60;;;;;;;-128.00;-1.00;-1.00;18480;339;7505731;-31
2023/06/12 11:16:07;;;;;;;17.10;8.10;;;;;;;-128.00;-1.00;-1.00;18479;330;7504851;-35
2023/06/12 11:18:33;;;;;;;2.20;1.10;;;;;;;-128.00;-1.00;-1.00;18483;310;7505888;-34
2023/06/12 11:20:58;;;;;;;2.70;1.80;;;;;;;-128.00;-1.00;-1.00;18482;295;7504657;-32
2023/06/12 11:23:25;;;;;;;12.10;5.70;;;;;;;-128.00;-1.00;-1.00;18461;295;7504562;-35
2023/06/12 11:25:53;;;;;;;4.70;1.50;;;;;;;-128.00;-1.00;-1.00;18501;299;7504515;-32
2023/06/12 11:28:25;;;;;;;5.90;0.70;;;;;;;-128.00;-1.00;-1.00;18464;295;7506822;-32
2023/06/12 11:30:53;;;;;;;3.90;1.30;;;;;;;-128.00;-1.00;-1.00;18501;296;7506334;-32
2023/06/12 11:33:19;;;;;;;3.20;1.60;;;;;;;-128.00;-1.00;-1.00;18492;294;7504739;-35
2023/06/12 11:35:47;;;;;;;5.80;2.10;;;;;;;-128.00;-1.00;-1.00;18487;295;7506973;-32
2023/06/12 11:38:14;;;;;;;4.70;1.20;;;;;;;-128.00;-1.00;-1.00;18445;295;7504264;-32
2023/06/12 11:40:41;;;;;;;3.50;1.10;;;;;;;-128.00;-1.00;-1.00;18464;295;7505193;-32
2023/06/12 11:43:07;;;;;;;2.50;1.20;;;;;;;-128.00;-1.00;-1.00;18494;295;7504838;-36
2023/06/12 11:45:33;;;;;;;15.20;1.30;;;;;;;-128.00;-1.00;-1.00;18492;295;7504582;-36
2023/06/12 11:47:59;;;;;;;5.30;1.00;;;;;;;-128.00;-1.00;-1.00;18469;295;7505945;-32
2023/06/12 11:50:25;;;;;;;5.90;0.90;;;;;;;-128.00;-1.00;-1.00;18480;310;7504648;-33
2023/06/12 11:52:51;;;;;;;2.00;1.20;;;;;;;-128.00;-1.00;-1.00;18474;295;7505605;-36
2023/06/12 11:55:17;;;;;;;12.80;2.60;;;;;;;-128.00;-1.00;-1.00;18483;295;7504409;-36
2023/06/12 11:57:50;;;;;;;8.30;1.30;;;;;;;-128.00;-1.00;-1.00;18511;295;7506210;-32
2023/06/12 12:00:18;;;;;;;5.00;1.10;;;;;;;-128.00;-1.00;-1.00;18489;295;7504898;-32
2023/06/12 12:02:49;;;;;;;2.10;1.20;;;;;;;-128.00;-1.00;-1.00;18486;299;7504542;-36
2023/06/12 12:05:23;;;;;;;4.30;1.40;;;;;;;-128.00;-1.00;-1.00;18460;295;7505002;-33
2023/06/12 12:07:52;;;;;;;2.40;1.60;;;;;;;-128.00;-1.00;-1.00;18491;287;7504605;-36
2023/06/12 12:10:18;;;;;;;2.90;1.40;;;;;;;-128.00;-1.00;-1.00;18471;306;7506065;-36